createdAt,value
2023-02-12T00:00:09.845Z,17.77
2023-02-12T00:02:44.268Z,18.70
2023-02-12T00:05:16.260Z,18.90
2023-02-12T00:07:45.293Z,15.40
2023-02-12T00:10:14.680Z,15.43
2023-02-12T00:12:44.968Z,18.32
2023-02-12T00:15:13.591Z,13.40
2023-02-12T00:17:43.240Z,16.95
2023-02-12T00:20:12.228Z,13.70
2023-02-12T00:22:42.318Z,14.45
2023-02-12T00:25:10.981Z,17.70
2023-02-12T00:27:41.679Z,16.65
2023-02-12T00:30:13.983Z,16.77
2023-02-12T00:32:45.928Z,16.77
2023-02-12T00:35:17.072Z,14.50
2023-02-12T00:37:45.916Z,14.03
2023-02-12T00:40:15.781Z,12.70
2023-02-12T00:42:47.194Z,14.85
2023-02-12T00:45:17.620Z,15.20
2023-02-12T00:47:47.738Z,13.25
2023-02-12T00:50:17.805Z,13.75
2023-02-12T00:52:46.371Z,13.18
2023-02-12T00:55:14.938Z,12.20
2023-02-12T00:57:43.487Z,13.72
2023-02-12T01:00:15.191Z,18.15
2023-02-12T01:02:43.924Z,14.05
2023-02-12T01:05:12.656Z,11.75
2023-02-12T01:07:42.905Z,14.10
2023-02-12T01:10:11.863Z,11.22
2023-02-12T01:12:40.462Z,11.00
2023-02-12T01:15:10.843Z,9.88
2023-02-12T01:17:39.438Z,9.95
2023-02-12T01:20:12.408Z,10.78
2023-02-12T01:22:41.934Z,10.35
2023-02-12T01:25:10.672Z,9.38
2023-02-12T01:27:40.881Z,7.47
2023-02-12T01:30:12.518Z,9.38
2023-02-12T01:32:41.124Z,8.43
2023-02-12T01:35:10.453Z,8.65
2023-02-12T01:37:40.205Z,8.10
2023-02-12T01:40:12.019Z,6.03
2023-02-12T01:42:42.284Z,6.12
2023-02-12T01:45:19.259Z,5.60
2023-02-12T01:50:20.063Z,5.50
2023-02-12T01:52:52.183Z,5.25
2023-02-12T01:55:22.040Z,5.83
2023-02-12T01:57:50.896Z,4.40
2023-02-12T02:00:23.515Z,4.67
2023-02-12T02:02:57.036Z,4.97
2023-02-12T02:05:43.223Z,3.67
2023-02-12T02:08:11.823Z,5.42
2023-02-12T02:10:40.842Z,5.05
2023-02-12T02:13:29.554Z,3.25
2023-02-12T02:16:00.895Z,4.47
2023-02-12T02:18:46.640Z,3.12
2023-02-12T02:21:36.311Z,6.22
2023-02-12T02:24:31.648Z,3.62
2023-02-12T02:27:18.483Z,2.95
2023-02-12T02:30:17.453Z,2.70
2023-02-12T02:32:56.131Z,4.10
2023-02-12T02:35:30.363Z,2.72
2023-02-12T02:38:22.805Z,1.92
2023-02-12T02:41:11.529Z,1.82
2023-02-12T02:43:50.613Z,1.30
2023-02-12T02:46:43.182Z,0.82
2023-02-12T02:49:34.112Z,1.10
2023-02-12T02:52:08.120Z,1.62
2023-02-12T02:54:52.112Z,1.30
2023-02-12T02:57:44.109Z,1.20
2023-02-12T03:00:18.411Z,1.02
2023-02-12T03:02:58.430Z,0.98
2023-02-12T03:05:32.374Z,1.67
2023-02-12T03:08:12.617Z,1.47
2023-02-12T03:10:50.152Z,1.55
2023-02-12T03:13:24.187Z,1.52
2023-02-12T03:16:13.736Z,2.47
2023-02-12T03:18:50.414Z,1.02
2023-02-12T03:21:24.672Z,1.50
2023-02-12T03:24:07.010Z,3.45
2023-02-12T03:26:47.160Z,1.92
2023-02-12T03:29:15.941Z,5.15
2023-02-12T03:31:55.948Z,1.05
2023-02-12T03:34:36.527Z,1.20
2023-02-12T03:37:12.026Z,1.35
2023-02-12T03:39:59.406Z,1.30
2023-02-12T03:45:39.304Z,1.57
2023-02-12T03:48:39.735Z,2.80
2023-02-12T03:51:35.123Z,1.10
2023-02-12T03:54:04.869Z,1.55
2023-02-12T03:56:38.644Z,0.75
2023-02-12T03:59:07.151Z,4.53
2023-02-12T04:01:36.294Z,2.02
2023-02-12T04:04:06.836Z,2.70
2023-02-12T04:06:35.828Z,0.80
2023-02-12T04:09:09.124Z,2.30
2023-02-12T04:12:16.690Z,3.95
2023-02-12T04:15:09.125Z,1.37
2023-02-12T04:18:02.744Z,1.30
2023-02-12T04:20:49.194Z,2.40
2023-02-12T04:23:28.643Z,3.87
2023-02-12T04:26:24.387Z,2.90
2023-02-12T04:29:14.986Z,1.47
2023-02-12T04:32:32.543Z,1.98
2023-02-12T04:35:13.560Z,3.30
2023-02-12T04:37:51.587Z,3.62
2023-02-12T04:40:20.323Z,3.15
2023-02-12T04:42:51.452Z,1.42
2023-02-12T04:45:28.937Z,3.20
2023-02-12T04:48:01.111Z,2.70
2023-02-12T04:50:41.499Z,2.85
2023-02-12T04:53:11.430Z,2.83
2023-02-12T04:55:40.315Z,2.30
2023-02-12T04:58:08.961Z,2.37
2023-02-12T05:00:37.620Z,2.85
2023-02-12T05:03:06.543Z,2.55
2023-02-12T05:05:36.327Z,2.45
2023-02-12T05:08:06.635Z,1.00
2023-02-12T05:10:36.794Z,2.47
2023-02-12T05:13:06.875Z,3.40
2023-02-12T05:15:39.523Z,1.67
2023-02-12T05:18:08.139Z,2.17
2023-02-12T05:20:38.192Z,1.67
2023-02-12T05:23:07.135Z,0.93
2023-02-12T05:25:37.116Z,2.62
2023-02-12T05:28:05.714Z,4.00
2023-02-12T05:30:34.234Z,2.08
2023-02-12T05:33:03.363Z,1.60
2023-02-12T05:35:35.239Z,3.75
2023-02-12T05:38:05.664Z,8.13
2023-02-12T05:40:35.268Z,4.25
2023-02-12T05:43:04.550Z,4.25
2023-02-12T05:45:35.790Z,2.12
2023-02-12T05:48:05.097Z,4.40
2023-02-12T05:50:35.964Z,3.20
2023-02-12T05:53:07.184Z,1.82
2023-02-12T05:55:37.318Z,4.72
2023-02-12T05:58:06.955Z,3.92
2023-02-12T06:00:35.745Z,4.87
2023-02-12T06:03:04.418Z,3.15
2023-02-12T06:05:34.290Z,3.58
2023-02-12T06:08:05.223Z,2.02
2023-02-12T06:10:35.301Z,4.78
2023-02-12T06:13:06.031Z,4.17
2023-02-12T06:15:37.247Z,2.25
2023-02-12T06:18:07.214Z,1.32
2023-02-12T06:20:39.852Z,1.92
2023-02-12T06:23:08.402Z,3.70
2023-02-12T06:25:37.506Z,1.67
2023-02-12T06:28:07.951Z,2.05
2023-02-12T06:30:36.624Z,1.55
2023-02-12T06:33:07.847Z,5.05
2023-02-12T06:35:36.848Z,1.57
2023-02-12T06:38:06.890Z,2.50
2023-02-12T06:40:35.760Z,4.08
2023-02-12T06:43:05.194Z,3.87
2023-02-12T06:45:34.943Z,3.27
2023-02-12T06:48:03.716Z,2.52
2023-02-12T06:50:33.874Z,1.02
2023-02-12T06:53:02.794Z,3.37
2023-02-12T06:55:32.045Z,2.95
2023-02-12T06:58:01.058Z,1.50
2023-02-12T07:00:31.336Z,3.67
2023-02-12T07:03:00.231Z,3.42
2023-02-12T07:05:28.990Z,3.67
2023-02-12T07:07:57.525Z,3.95
2023-02-12T07:10:26.280Z,4.10
2023-02-12T07:12:56.497Z,3.75
2023-02-12T07:15:25.483Z,3.75
2023-02-12T07:17:54.168Z,2.35
2023-02-12T07:20:23.054Z,3.98
2023-02-12T07:22:51.793Z,3.30
2023-02-12T07:25:20.370Z,5.03
2023-02-12T07:27:50.590Z,2.77
2023-02-12T07:30:20.214Z,2.87
2023-02-12T07:32:49.883Z,3.45
2023-02-12T07:35:18.427Z,3.45
2023-02-12T07:37:47.093Z,2.65
2023-02-12T07:40:16.161Z,2.40
2023-02-12T07:42:44.789Z,2.62
2023-02-12T07:45:14.608Z,3.25
2023-02-12T07:47:43.602Z,3.50
2023-02-12T07:50:12.492Z,3.50
2023-02-12T07:52:41.169Z,2.05
2023-02-12T07:55:10.064Z,3.45
2023-02-12T07:57:38.840Z,2.42
2023-02-12T08:00:08.824Z,2.55
2023-02-12T08:02:40.567Z,2.00
2023-02-12T08:05:09.404Z,1.95
2023-02-12T08:07:39.095Z,6.25
2023-02-12T08:10:08.871Z,4.58
2023-02-12T08:12:37.449Z,2.45
2023-02-12T08:15:08.256Z,3.42
2023-02-12T08:17:37.429Z,3.10
2023-02-12T08:20:08.230Z,2.98
2023-02-12T08:22:36.767Z,2.75
2023-02-12T08:25:06.053Z,2.62
2023-02-12T08:27:34.720Z,2.60
2023-02-12T08:30:03.669Z,5.03
2023-02-12T08:32:33.614Z,1.52
2023-02-12T08:35:03.660Z,2.17
2023-02-12T08:37:32.808Z,3.25
2023-02-12T08:40:01.914Z,3.20
2023-02-12T08:42:31.659Z,2.65
2023-02-12T08:45:00.307Z,1.12
2023-02-12T08:47:31.546Z,2.90
2023-02-12T08:50:00.344Z,3.20
2023-02-12T08:52:30.230Z,3.08
2023-02-12T08:55:01.405Z,1.80
2023-02-12T08:57:30.339Z,1.37
2023-02-12T08:59:59.069Z,1.57
2023-02-12T09:02:28.140Z,1.80
2023-02-12T09:04:57.568Z,2.87
2023-02-12T09:07:27.499Z,2.08
2023-02-12T09:09:56.472Z,5.08
2023-02-12T09:12:25.345Z,3.60
2023-02-12T09:14:55.716Z,12.28
2023-02-12T09:17:27.253Z,1.32
2023-02-12T09:19:57.217Z,3.00
2023-02-12T09:22:25.900Z,2.37
2023-02-12T09:24:56.373Z,15.18
2023-02-12T09:27:25.036Z,4.42
2023-02-12T09:29:53.913Z,4.83
2023-02-12T09:32:22.805Z,2.15
2023-02-12T09:34:51.970Z,4.80
2023-02-12T09:37:20.856Z,2.15
2023-02-12T09:39:51.645Z,4.08
2023-02-12T09:42:52.110Z,4.95
2023-02-12T09:45:26.985Z,7.35
2023-02-12T09:48:19.475Z,8.58
2023-02-12T09:51:00.454Z,8.53
2023-02-12T09:53:30.901Z,16.20
2023-02-12T09:55:59.403Z,7.15
2023-02-12T09:58:53.283Z,11.97
2023-02-12T10:01:23.023Z,6.05
2023-02-12T10:03:52.225Z,14.80
2023-02-12T10:06:29.382Z,7.15
2023-02-12T10:09:09.707Z,7.80
2023-02-12T10:12:03.021Z,10.60
2023-02-12T10:15:02.287Z,21.77
2023-02-12T10:17:45.002Z,11.95
2023-02-12T10:20:42.279Z,9.15
2023-02-12T10:23:37.824Z,11.95
2023-02-12T10:26:23.404Z,4.53
2023-02-12T10:28:52.839Z,13.20
2023-02-12T10:31:33.016Z,5.05
2023-02-12T10:34:02.258Z,5.50
2023-02-12T10:36:45.626Z,6.22
2023-02-12T10:39:24.377Z,10.28
2023-02-12T10:42:10.490Z,14.83
2023-02-12T10:44:39.793Z,9.90
2023-02-12T10:47:22.487Z,5.85
2023-02-12T10:50:02.084Z,9.03
2023-02-12T10:52:45.763Z,9.08
2023-02-12T10:55:32.154Z,14.28
2023-02-12T10:58:03.116Z,11.00
2023-02-12T11:00:37.339Z,3.35
2023-02-12T11:03:20.841Z,1.98
2023-02-12T11:05:50.344Z,9.20
2023-02-12T11:08:38.348Z,3.50
2023-02-12T11:13:39.813Z,8.63
2023-02-12T11:16:10.382Z,5.25
2023-02-12T11:18:40.930Z,8.95
2023-02-12T11:21:13.571Z,9.45
2023-02-12T11:23:43.756Z,6.55
2023-02-12T11:26:26.818Z,3.62
2023-02-12T11:29:03.599Z,5.08
2023-02-12T11:31:34.886Z,14.70
2023-02-12T11:34:19.485Z,5.42
2023-02-12T11:36:50.268Z,9.70
2023-02-12T11:39:33.293Z,12.35
2023-02-12T11:42:09.901Z,2.72
2023-02-12T11:44:41.982Z,5.92
2023-02-12T11:47:27.068Z,7.42
2023-02-12T11:50:20.250Z,7.58
2023-02-12T11:52:51.979Z,2.70
2023-02-12T11:55:33.631Z,10.70
2023-02-12T11:58:16.982Z,2.17
2023-02-12T12:01:09.795Z,5.70
2023-02-12T12:04:17.868Z,6.00
2023-02-12T12:06:51.681Z,6.25
2023-02-12T12:09:30.339Z,3.83
2023-02-12T12:12:23.566Z,9.43
2023-02-12T12:15:15.385Z,8.93
2023-02-12T12:18:19.939Z,10.03
2023-02-12T12:21:06.378Z,6.65
2023-02-12T12:23:39.481Z,12.20
2023-02-12T12:26:18.529Z,6.15
2023-02-12T12:29:01.986Z,4.60
2023-02-12T12:31:42.219Z,16.50
2023-02-12T12:34:24.699Z,4.25
2023-02-12T12:37:19.292Z,4.55
2023-02-12T12:39:59.771Z,5.47
2023-02-12T12:42:58.168Z,6.62
2023-02-12T12:46:01.525Z,8.33
2023-02-12T12:49:03.962Z,4.08
2023-02-12T12:52:08.164Z,5.25
2023-02-12T12:54:43.803Z,6.92
2023-02-12T12:57:38.883Z,6.15
2023-02-12T13:00:36.982Z,2.90
2023-02-12T13:03:53.349Z,4.08
2023-02-12T13:06:54.794Z,21.27
2023-02-12T13:09:59.835Z,6.83
2023-02-12T13:12:56.733Z,2.55
2023-02-12T13:16:01.794Z,23.92
2023-02-12T13:19:08.309Z,11.25
2023-02-12T13:22:12.448Z,7.30
2023-02-12T13:24:58.882Z,11.33
2023-02-12T13:27:34.608Z,5.60
2023-02-12T13:30:18.004Z,9.48
2023-02-12T13:33:17.064Z,14.53
2023-02-12T13:35:47.498Z,9.95
2023-02-12T13:38:25.278Z,5.53
2023-02-12T13:41:00.390Z,8.00
2023-02-12T13:43:59.855Z,9.15
2023-02-12T13:46:59.979Z,6.50
2023-02-12T13:49:56.382Z,5.85
2023-02-12T13:52:47.356Z,3.33
2023-02-12T13:55:35.417Z,4.97
2023-02-12T13:58:39.969Z,4.47
2023-02-12T14:01:14.213Z,17.55
2023-02-12T14:03:45.979Z,4.42
2023-02-12T14:06:24.588Z,8.45
2023-02-12T14:09:09.593Z,7.12
2023-02-12T14:11:51.946Z,3.77
2023-02-12T14:14:39.749Z,6.20
2023-02-12T14:17:33.731Z,2.42
2023-02-12T14:20:27.339Z,3.60
2023-02-12T14:23:22.517Z,5.75
2023-02-12T14:26:10.679Z,9.25
2023-02-12T14:29:01.984Z,9.68
2023-02-12T14:31:34.096Z,8.18
2023-02-12T14:34:11.829Z,12.73
2023-02-12T14:36:46.478Z,4.35
2023-02-12T14:39:26.590Z,3.95
2023-02-12T14:42:26.652Z,5.55
2023-02-12T14:44:58.565Z,5.05
2023-02-12T14:47:38.365Z,8.75
2023-02-12T14:50:15.596Z,7.87
2023-02-12T14:52:51.897Z,3.90
2023-02-12T14:55:25.014Z,6.00
2023-02-12T14:57:59.361Z,19.02
2023-02-12T15:00:41.733Z,10.03
2023-02-12T15:03:22.166Z,3.40
2023-02-12T15:06:10.694Z,3.80
2023-02-12T15:09:24.455Z,10.98
2023-02-12T15:12:20.169Z,3.30
2023-02-12T15:15:04.868Z,13.68
2023-02-12T15:17:35.404Z,3.20
2023-02-12T15:20:10.206Z,3.25
2023-02-12T15:22:42.818Z,4.10
2023-02-12T15:25:23.395Z,7.25
2023-02-12T15:28:01.928Z,9.65
2023-02-12T15:30:33.649Z,10.28
2023-02-12T15:33:05.684Z,8.23
2023-02-12T15:35:38.249Z,8.68
2023-02-12T15:38:08.057Z,5.03
2023-02-12T15:40:38.948Z,9.05
2023-02-12T15:43:14.260Z,8.45
2023-02-12T15:45:53.906Z,25.37
2023-02-12T15:48:25.809Z,20.40
2023-02-12T15:51:24.751Z,11.35
2023-02-12T15:53:53.633Z,56.95
2023-02-12T15:56:23.410Z,7.95
2023-02-12T15:58:59.265Z,17.25
2023-02-12T16:01:34.858Z,8.80
2023-02-12T16:04:06.441Z,4.47
2023-02-12T16:06:36.402Z,10.38
2023-02-12T16:09:28.751Z,13.53
2023-02-12T16:11:59.077Z,10.68
2023-02-12T16:14:37.503Z,9.73
2023-02-12T16:17:27.012Z,10.55
2023-02-12T16:20:01.577Z,5.37
2023-02-12T16:22:42.474Z,12.98
2023-02-12T16:25:24.697Z,7.45
2023-02-12T16:28:19.864Z,3.67
2023-02-12T16:30:49.163Z,11.45
2023-02-12T16:33:45.252Z,10.93
2023-02-12T16:36:25.889Z,8.08
2023-02-12T16:38:57.365Z,3.25
2023-02-12T16:41:39.171Z,7.30
2023-02-12T16:44:21.196Z,8.18
2023-02-12T16:46:52.951Z,3.95
2023-02-12T16:49:24.955Z,4.97
2023-02-12T16:52:08.744Z,6.42
2023-02-12T16:54:37.284Z,3.42
2023-02-12T16:57:10.224Z,15.53
2023-02-12T16:59:43.326Z,5.83
2023-02-12T17:02:14.653Z,7.70
2023-02-12T17:04:43.335Z,9.40
2023-02-12T17:07:22.971Z,4.50
2023-02-12T17:09:52.646Z,7.10
2023-02-12T17:12:22.902Z,9.85
2023-02-12T17:14:51.903Z,13.75
2023-02-12T17:17:22.129Z,7.95
2023-02-12T17:19:53.112Z,8.75
2023-02-12T17:22:24.394Z,10.90
2023-02-12T17:24:54.485Z,19.70
2023-02-12T17:27:23.456Z,12.07
2023-02-12T17:29:53.649Z,6.17
2023-02-12T17:32:24.121Z,7.37
2023-02-12T17:34:54.308Z,18.70
2023-02-12T17:37:24.549Z,19.42
2023-02-12T17:39:56.013Z,14.35
2023-02-12T17:42:24.442Z,18.15
2023-02-12T17:44:52.993Z,14.10
2023-02-12T17:47:22.419Z,17.35
2023-02-12T17:49:51.349Z,14.98
2023-02-12T17:52:20.651Z,13.43
2023-02-12T17:54:51.399Z,18.67
2023-02-12T17:57:21.207Z,24.75
2023-02-12T17:59:50.706Z,16.95
2023-02-12T18:02:20.909Z,21.97
2023-02-12T18:04:49.638Z,20.43
2023-02-12T18:07:23.563Z,18.98
2023-02-12T18:09:53.528Z,18.30
2023-02-12T18:12:22.711Z,17.23
2023-02-12T18:14:52.576Z,14.53
2023-02-12T18:17:22.963Z,11.93
2023-02-12T18:19:51.853Z,13.15
2023-02-12T18:22:20.883Z,14.05
2023-02-12T18:24:49.549Z,29.85
2023-02-12T18:27:18.464Z,16.42
2023-02-12T18:29:47.224Z,16.27
2023-02-12T18:32:16.301Z,18.00
2023-02-12T18:34:45.334Z,15.00
2023-02-12T18:37:14.200Z,17.62
2023-02-12T18:39:43.157Z,25.80
2023-02-12T18:42:12.498Z,36.83
2023-02-12T18:44:42.502Z,27.93
2023-02-12T18:47:11.242Z,27.52
2023-02-12T18:49:40.722Z,20.75
2023-02-12T18:52:09.731Z,22.62
2023-02-12T18:54:38.211Z,16.00
2023-02-12T18:57:06.980Z,18.42
2023-02-12T18:59:37.387Z,21.48
2023-02-12T19:02:07.587Z,24.02
2023-02-12T19:04:36.483Z,18.55
2023-02-12T19:07:05.357Z,18.90
2023-02-12T19:09:34.579Z,14.83
2023-02-12T19:12:06.875Z,17.35
2023-02-12T19:14:35.529Z,14.30
2023-02-12T19:17:04.472Z,21.25
2023-02-12T19:19:33.108Z,10.30
2023-02-12T19:22:01.784Z,15.88
2023-02-12T19:24:45.594Z,12.25
2023-02-12T19:27:02.482Z,12.03
2023-02-12T19:29:31.155Z,14.63
2023-02-12T19:31:59.997Z,15.15
2023-02-12T19:34:28.982Z,9.28
2023-02-12T19:36:57.987Z,13.32
2023-02-12T19:39:27.221Z,15.85
2023-02-12T19:41:55.910Z,15.85
2023-02-12T19:44:25.134Z,9.90
2023-02-12T19:46:54.881Z,17.77
2023-02-12T19:49:26.921Z,14.03
2023-02-12T19:51:56.571Z,14.75
2023-02-12T19:54:25.150Z,18.05
2023-02-12T19:56:55.325Z,14.55
2023-02-12T19:59:25.299Z,14.43
2023-02-12T20:01:55.938Z,11.22
2023-02-12T20:04:24.762Z,11.60
2023-02-12T20:06:54.716Z,11.73
2023-02-12T20:09:23.690Z,21.95
2023-02-12T20:11:52.897Z,20.50
2023-02-12T20:14:22.330Z,15.85
2023-02-12T20:16:53.325Z,31.45
2023-02-12T20:19:26.982Z,41.48
2023-02-12T20:21:57.512Z,34.48
2023-02-12T20:24:29.371Z,37.33
2023-02-12T20:26:58.570Z,31.48
2023-02-12T20:29:27.898Z,48.15
2023-02-12T20:31:56.429Z,40.92
2023-02-12T20:34:25.230Z,22.87
2023-02-12T20:36:53.996Z,18.48
2023-02-12T20:39:23.146Z,14.33
2023-02-12T20:41:52.602Z,12.10
2023-02-12T20:44:21.564Z,14.70
2023-02-12T20:46:55.903Z,13.83
2023-02-12T20:49:24.065Z,15.63
2023-02-12T20:51:54.612Z,18.10
2023-02-12T20:54:23.183Z,16.73
2023-02-12T20:56:52.440Z,18.48
2023-02-12T20:59:21.172Z,19.35
2023-02-12T21:01:49.926Z,23.38
2023-02-12T21:04:19.181Z,23.75
2023-02-12T21:06:47.976Z,23.80
2023-02-12T21:09:16.545Z,14.63
2023-02-12T21:11:46.922Z,23.75
2023-02-12T21:14:24.677Z,12.85
2023-02-12T21:16:47.272Z,16.27
2023-02-12T21:19:16.700Z,13.78
2023-02-12T21:21:45.646Z,24.72
2023-02-12T21:24:22.471Z,11.48
2023-02-12T21:26:52.035Z,17.27
2023-02-12T21:29:21.396Z,12.50
2023-02-12T21:31:51.038Z,10.48
2023-02-12T21:34:21.636Z,11.88
2023-02-12T21:36:50.830Z,9.78
2023-02-12T21:39:27.235Z,14.40
2023-02-12T21:42:02.414Z,12.65
2023-02-12T21:44:32.457Z,10.82
2023-02-12T21:47:01.237Z,17.23
2023-02-12T21:49:31.484Z,10.58
2023-02-12T21:52:05.624Z,10.32
2023-02-12T21:54:35.015Z,10.63
2023-02-12T21:57:05.337Z,10.08
2023-02-12T21:59:35.005Z,10.40
2023-02-12T22:02:05.510Z,11.15
2023-02-12T22:04:37.023Z,12.05
2023-02-12T22:07:07.952Z,9.90
2023-02-12T22:09:38.333Z,9.60
2023-02-12T22:12:07.508Z,16.35
2023-02-12T22:14:36.044Z,17.00
2023-02-12T22:17:08.044Z,11.80
2023-02-12T22:19:38.692Z,10.53
2023-02-12T22:22:07.449Z,11.75
2023-02-12T22:24:37.578Z,9.85
2023-02-12T22:27:08.031Z,11.88
2023-02-12T22:29:38.195Z,9.08
2023-02-12T22:32:06.820Z,11.45
2023-02-12T22:34:36.482Z,8.90
2023-02-12T22:37:05.079Z,7.58
2023-02-12T22:39:35.678Z,7.47
2023-02-12T22:42:04.890Z,7.08
2023-02-12T22:44:36.300Z,18.05
2023-02-12T22:47:05.967Z,8.88
2023-02-12T22:49:34.669Z,7.30
2023-02-12T22:52:04.929Z,6.42
2023-02-12T22:54:36.100Z,6.25
2023-02-12T22:57:06.253Z,10.28
2023-02-12T22:59:34.921Z,7.12
2023-02-12T23:02:05.328Z,5.80
2023-02-12T23:04:34.043Z,9.08
2023-02-12T23:07:03.973Z,9.88
2023-02-12T23:09:33.574Z,9.50
2023-02-12T23:12:04.199Z,9.63
2023-02-12T23:14:35.758Z,10.65
2023-02-12T23:17:05.419Z,8.70
2023-02-12T23:19:33.930Z,7.35
2023-02-12T23:22:02.508Z,7.72
2023-02-12T23:24:31.539Z,13.58
2023-02-12T23:27:02.905Z,7.83
2023-02-12T23:29:31.489Z,5.90
2023-02-12T23:32:02.138Z,4.97
2023-02-12T23:34:31.152Z,6.75
2023-02-12T23:36:59.722Z,5.45
2023-02-12T23:39:28.725Z,10.30
2023-02-12T23:41:57.241Z,7.87
2023-02-12T23:44:26.116Z,9.68
2023-02-12T23:46:55.070Z,9.00
2023-02-12T23:49:24.143Z,12.82
2023-02-12T23:51:53.012Z,10.60
2023-02-12T23:54:22.918Z,8.83
2023-02-12T23:56:51.563Z,9.63
2023-02-12T23:59:20.990Z,8.45
